createdAt,value
2023-02-03T00:00:34.580Z,17.10
2023-02-03T00:03:03.209Z,16.70
2023-02-03T00:05:32.215Z,17.60
2023-02-03T00:08:01.030Z,16.10
2023-02-03T00:10:29.827Z,18.60
2023-02-03T00:12:58.505Z,18.60
2023-02-03T00:15:27.645Z,19.90
2023-02-03T00:17:56.931Z,15.80
2023-02-03T00:20:26.526Z,18.60
2023-02-03T00:22:55.914Z,17.30
2023-02-03T00:25:25.314Z,18.80
2023-02-03T00:27:54.010Z,19.30
2023-02-03T00:30:22.583Z,22.30
2023-02-03T00:32:52.191Z,21.90
2023-02-03T00:35:20.574Z,22.30
2023-02-03T00:37:55.803Z,19.80
2023-02-03T00:40:26.215Z,20.90
2023-02-03T00:42:55.251Z,20.00
2023-02-03T00:45:23.949Z,20.60
2023-02-03T00:47:52.600Z,20.40
2023-02-03T00:50:21.366Z,21.00
2023-02-03T00:52:49.872Z,17.30
2023-02-03T00:55:18.500Z,18.70
2023-02-03T00:57:47.116Z,22.40
2023-02-03T01:00:16.340Z,17.60
2023-02-03T01:02:46.093Z,17.10
2023-02-03T01:05:15.316Z,16.40
2023-02-03T01:07:44.549Z,21.60
2023-02-03T01:10:15.083Z,17.50
2023-02-03T01:12:44.490Z,18.30
2023-02-03T01:15:12.981Z,18.30
2023-02-03T01:17:41.889Z,16.00
2023-02-03T01:20:12.489Z,17.50
2023-02-03T01:22:40.907Z,15.30
2023-02-03T01:25:09.707Z,18.20
2023-02-03T01:27:39.699Z,15.60
2023-02-03T01:30:08.832Z,18.10
2023-02-03T01:32:40.528Z,20.70
2023-02-03T01:35:09.110Z,16.60
2023-02-03T01:37:37.804Z,18.30
2023-02-03T01:40:07.533Z,20.20
2023-02-03T01:42:35.889Z,21.10
2023-02-03T01:45:05.298Z,17.00
2023-02-03T01:47:44.329Z,20.60
2023-02-03T01:50:33.420Z,19.50
2023-02-03T01:53:04.055Z,19.40
2023-02-03T01:55:35.405Z,21.70
2023-02-03T02:00:33.869Z,19.60
2023-02-03T02:03:02.766Z,17.20
2023-02-03T02:05:39.292Z,18.00
2023-02-03T02:08:08.124Z,24.80
2023-02-03T02:10:36.618Z,18.50
2023-02-03T02:13:05.395Z,19.50
2023-02-03T02:15:38.153Z,20.80
2023-02-03T02:18:16.578Z,21.60
2023-02-03T02:21:23.775Z,19.40
2023-02-03T02:24:04.979Z,21.40
2023-02-03T02:26:44.898Z,19.90
2023-02-03T02:29:44.473Z,18.10
2023-02-03T02:32:40.444Z,18.60
2023-02-03T02:35:47.921Z,20.70
2023-02-03T02:38:35.109Z,17.50
2023-02-03T02:41:04.146Z,20.50
2023-02-03T02:43:35.607Z,19.10
2023-02-03T02:46:09.639Z,17.80
2023-02-03T02:48:55.388Z,20.00
2023-02-03T02:51:24.137Z,17.80
2023-02-03T02:54:02.411Z,20.00
2023-02-03T02:56:32.207Z,17.50
2023-02-03T02:59:01.717Z,18.60
2023-02-03T03:01:30.337Z,16.90
2023-02-03T03:03:59.729Z,17.10
2023-02-03T03:06:30.625Z,17.00
2023-02-03T03:09:08.547Z,19.50
2023-02-03T03:11:45.524Z,16.20
2023-02-03T03:14:13.993Z,14.60
2023-02-03T03:16:44.654Z,16.30
2023-02-03T03:19:15.458Z,15.30
2023-02-03T03:21:49.561Z,20.60
2023-02-03T03:24:20.736Z,14.70
2023-02-03T03:26:56.200Z,16.10
2023-02-03T03:29:32.422Z,16.30
2023-02-03T03:32:01.641Z,16.80
2023-02-03T03:34:31.032Z,17.00
2023-02-03T03:37:07.341Z,18.20
2023-02-03T03:39:56.787Z,18.60
2023-02-03T03:42:31.666Z,17.70
2023-02-03T03:45:20.249Z,15.10
2023-02-03T03:48:02.144Z,16.10
2023-02-03T03:50:34.884Z,14.50
2023-02-03T03:53:03.609Z,16.00
2023-02-03T03:55:32.760Z,13.80
2023-02-03T03:58:06.520Z,16.50
2023-02-03T04:00:37.768Z,14.60
2023-02-03T04:03:09.086Z,15.50
2023-02-03T04:08:05.815Z,15.70
2023-02-03T04:10:40.744Z,15.90
2023-02-03T04:13:09.948Z,13.50
2023-02-03T04:15:40.178Z,13.30
2023-02-03T04:18:11.443Z,14.50
2023-02-03T04:20:39.840Z,12.40
2023-02-03T04:23:08.935Z,17.00
2023-02-03T04:25:37.632Z,13.90
2023-02-03T04:28:07.026Z,14.20
2023-02-03T04:30:35.767Z,15.60
2023-02-03T04:33:05.244Z,13.20
2023-02-03T04:35:33.984Z,14.40
2023-02-03T04:38:02.485Z,16.50
2023-02-03T04:40:32.466Z,16.10
2023-02-03T04:43:07.235Z,13.50
2023-02-03T04:45:36.149Z,13.20
2023-02-03T04:48:07.469Z,13.50
2023-02-03T04:53:04.489Z,12.80
2023-02-03T04:55:32.923Z,14.50
2023-02-03T04:58:01.728Z,12.20
2023-02-03T05:00:30.573Z,15.00
2023-02-03T05:02:59.760Z,14.90
2023-02-03T05:05:28.739Z,15.20
2023-02-03T05:07:57.690Z,12.20
2023-02-03T05:10:26.378Z,13.70
2023-02-03T05:12:56.174Z,13.90
2023-02-03T05:15:25.034Z,13.60
2023-02-03T05:17:53.911Z,12.40
2023-02-03T05:20:22.948Z,17.70
2023-02-03T05:22:51.734Z,12.90
2023-02-03T05:25:20.553Z,15.50
2023-02-03T05:27:49.442Z,14.60
2023-02-03T05:30:18.737Z,14.20
2023-02-03T05:32:47.301Z,17.80
2023-02-03T05:35:15.937Z,15.40
2023-02-03T05:37:45.854Z,15.20
2023-02-03T05:40:32.951Z,15.30
2023-02-03T05:43:01.872Z,17.10
2023-02-03T05:45:30.451Z,15.90
2023-02-03T05:47:58.871Z,15.90
2023-02-03T05:50:30.699Z,14.40
2023-02-03T05:53:08.742Z,13.40
2023-02-03T05:55:37.953Z,14.20
2023-02-03T05:58:06.942Z,14.90
2023-02-03T06:00:36.247Z,13.60
2023-02-03T06:03:05.218Z,15.10
2023-02-03T06:05:34.045Z,13.00
2023-02-03T06:08:02.531Z,13.20
2023-02-03T06:10:31.075Z,14.70
2023-02-03T06:13:00.376Z,13.20
2023-02-03T06:15:29.071Z,15.90
2023-02-03T06:17:57.852Z,14.60
2023-02-03T06:20:26.508Z,13.20
2023-02-03T06:22:55.431Z,15.70
2023-02-03T06:25:24.627Z,17.50
2023-02-03T06:27:53.319Z,17.50
2023-02-03T06:30:24.007Z,15.80
2023-02-03T06:32:52.757Z,18.30
2023-02-03T06:35:21.282Z,15.60
2023-02-03T06:37:49.927Z,16.90
2023-02-03T06:40:18.934Z,17.80
2023-02-03T06:42:48.071Z,16.30
2023-02-03T06:45:16.680Z,16.40
2023-02-03T06:47:45.825Z,14.80
2023-02-03T06:50:15.187Z,14.80
2023-02-03T06:52:43.965Z,15.60
2023-02-03T06:55:12.647Z,15.70
2023-02-03T06:57:45.940Z,15.80
2023-02-03T07:00:18.439Z,15.40
2023-02-03T07:02:50.596Z,19.60
2023-02-03T07:05:19.206Z,18.20
2023-02-03T07:07:47.659Z,17.10
2023-02-03T07:10:17.610Z,17.20
2023-02-03T07:12:46.617Z,16.90
2023-02-03T07:15:15.243Z,17.50
2023-02-03T07:17:44.344Z,22.60
2023-02-03T07:20:13.195Z,18.90
2023-02-03T07:22:44.019Z,19.20
2023-02-03T07:25:12.649Z,20.90
2023-02-03T07:27:41.301Z,17.50
2023-02-03T07:30:10.771Z,21.50
2023-02-03T07:32:39.594Z,34.80
2023-02-03T07:35:08.830Z,23.20
2023-02-03T07:37:38.346Z,25.60
2023-02-03T07:40:07.649Z,18.70
2023-02-03T07:42:40.959Z,23.00
2023-02-03T07:45:10.749Z,29.70
2023-02-03T07:47:39.378Z,25.60
2023-02-03T07:50:09.046Z,17.60
2023-02-03T07:52:37.949Z,13.50
2023-02-03T07:55:07.843Z,12.90
2023-02-03T07:57:37.257Z,14.30
2023-02-03T08:00:06.437Z,12.50
2023-02-03T08:02:42.023Z,13.20
2023-02-03T08:05:11.065Z,11.20
2023-02-03T08:07:39.701Z,10.30
2023-02-03T08:10:08.801Z,11.80
2023-02-03T08:12:37.341Z,11.40
2023-02-03T08:15:06.770Z,11.30
2023-02-03T08:17:36.251Z,9.70
2023-02-03T08:20:05.482Z,9.30
2023-02-03T08:22:34.483Z,12.80
2023-02-03T08:25:04.154Z,11.30
2023-02-03T08:27:36.857Z,10.20
2023-02-03T08:30:06.400Z,9.80
2023-02-03T08:32:34.742Z,9.30
2023-02-03T08:35:03.509Z,9.20
2023-02-03T08:37:32.963Z,9.90
2023-02-03T08:40:01.459Z,10.80
2023-02-03T08:42:30.078Z,10.70
2023-02-03T08:44:58.741Z,9.40
2023-02-03T08:47:29.189Z,10.00
2023-02-03T08:49:57.682Z,10.50
2023-02-03T08:52:26.110Z,11.30
2023-02-03T08:54:54.537Z,11.70
2023-02-03T08:57:23.248Z,11.00
2023-02-03T08:59:53.439Z,11.20
2023-02-03T09:02:22.239Z,11.50
2023-02-03T09:04:52.250Z,12.50
2023-02-03T09:07:20.929Z,11.30
2023-02-03T09:09:49.618Z,11.20
2023-02-03T09:12:18.035Z,13.80
2023-02-03T09:14:46.507Z,12.60
2023-02-03T09:17:15.075Z,10.50
2023-02-03T09:19:43.598Z,13.40
2023-02-03T09:22:12.254Z,13.30
2023-02-03T09:24:40.934Z,12.80
2023-02-03T09:27:09.675Z,12.10
2023-02-03T09:29:38.190Z,13.10
2023-02-03T09:32:10.392Z,12.40
2023-02-03T09:34:40.884Z,11.70
2023-02-03T09:37:10.911Z,12.00
2023-02-03T09:39:39.586Z,11.80
2023-02-03T09:42:18.550Z,13.10
2023-02-03T09:45:24.175Z,11.40
2023-02-03T09:47:55.629Z,8.70
2023-02-03T09:50:25.900Z,9.70
2023-02-03T09:52:54.525Z,9.90
2023-02-03T09:55:26.403Z,11.90
2023-02-03T09:58:02.323Z,11.20
2023-02-03T10:00:51.688Z,9.50
2023-02-03T10:03:23.081Z,9.90
2023-02-03T10:06:04.080Z,11.00
2023-02-03T10:08:41.429Z,25.70
2023-02-03T10:11:35.204Z,14.60
2023-02-03T10:14:42.326Z,12.60
2023-02-03T10:17:55.108Z,13.10
2023-02-03T10:20:33.767Z,12.70
2023-02-03T10:23:32.568Z,13.80
2023-02-03T10:26:06.595Z,11.90
2023-02-03T10:29:07.588Z,13.50
2023-02-03T10:31:36.726Z,11.10
2023-02-03T10:34:11.314Z,12.70
2023-02-03T10:37:16.432Z,10.80
2023-02-03T10:39:49.216Z,12.10
2023-02-03T10:42:18.011Z,12.60
2023-02-03T10:44:57.340Z,12.20
2023-02-03T10:47:28.891Z,14.10
2023-02-03T10:49:57.930Z,12.40
2023-02-03T10:52:34.149Z,10.50
2023-02-03T10:55:30.384Z,13.10
2023-02-03T10:57:59.280Z,11.70
2023-02-03T11:00:30.388Z,11.40
2023-02-03T11:05:36.107Z,11.90
2023-02-03T11:08:05.216Z,14.00
2023-02-03T11:10:36.379Z,12.50
2023-02-03T11:13:21.403Z,12.30
2023-02-03T11:16:06.497Z,11.10
2023-02-03T11:18:51.712Z,11.90
2023-02-03T11:21:32.298Z,12.20
2023-02-03T11:24:05.193Z,12.90
2023-02-03T11:26:40.290Z,11.50
2023-02-03T11:29:15.518Z,13.60
2023-02-03T11:31:47.078Z,12.00
2023-02-03T11:34:17.646Z,12.20
2023-02-03T11:36:46.009Z,13.50
2023-02-03T11:39:35.944Z,11.80
2023-02-03T11:42:31.384Z,11.80
2023-02-03T11:45:18.547Z,11.60
2023-02-03T11:47:51.849Z,12.60
2023-02-03T11:50:39.717Z,12.50
2023-02-03T11:53:08.057Z,11.70
2023-02-03T11:55:53.643Z,12.40
2023-02-03T11:58:41.670Z,13.10
2023-02-03T12:01:47.753Z,12.40
2023-02-03T12:04:18.107Z,12.70
2023-02-03T12:07:17.879Z,12.40
2023-02-03T12:09:50.662Z,10.60
2023-02-03T12:12:33.836Z,12.70
2023-02-03T12:15:02.240Z,11.10
2023-02-03T12:17:35.403Z,13.80
2023-02-03T12:20:07.416Z,11.90
2023-02-03T12:22:56.384Z,11.60
2023-02-03T12:26:17.799Z,11.90
2023-02-03T12:28:54.138Z,12.50
2023-02-03T12:31:37.243Z,11.60
2023-02-03T12:34:26.355Z,12.10
2023-02-03T12:37:02.858Z,11.20
2023-02-03T12:39:36.983Z,11.10
2023-02-03T12:42:27.611Z,17.40
2023-02-03T12:45:09.379Z,11.50
2023-02-03T12:47:47.363Z,11.40
2023-02-03T12:50:35.068Z,11.60
2023-02-03T12:53:17.245Z,12.50
2023-02-03T12:55:55.992Z,10.80
2023-02-03T12:58:28.634Z,14.10
2023-02-03T13:01:01.332Z,11.40
2023-02-03T13:03:57.416Z,11.50
2023-02-03T13:06:31.139Z,13.00
2023-02-03T13:09:01.838Z,13.20
2023-02-03T13:11:46.783Z,11.50
2023-02-03T13:14:21.542Z,10.40
2023-02-03T13:17:00.405Z,10.80
2023-02-03T13:19:30.973Z,10.90
2023-02-03T13:21:59.587Z,12.90
2023-02-03T13:24:29.341Z,11.20
2023-02-03T13:27:05.014Z,12.30
2023-02-03T13:29:49.826Z,11.60
2023-02-03T13:32:37.716Z,16.50
2023-02-03T13:35:24.818Z,14.40
2023-02-03T13:38:04.499Z,11.90
2023-02-03T13:41:09.153Z,11.60
2023-02-03T13:43:44.822Z,11.30
2023-02-03T13:46:29.317Z,14.50
2023-02-03T13:49:00.088Z,12.60
2023-02-03T13:51:43.665Z,13.70
2023-02-03T13:54:37.112Z,17.10
2023-02-03T13:57:07.200Z,16.20
2023-02-03T13:59:42.456Z,13.80
2023-02-03T14:02:39.089Z,12.90
2023-02-03T14:05:10.001Z,13.10
2023-02-03T14:07:39.600Z,13.80
2023-02-03T14:10:14.534Z,15.30
2023-02-03T14:12:52.570Z,10.30
2023-02-03T14:15:23.399Z,13.70
2023-02-03T14:17:52.061Z,15.50
2023-02-03T14:20:29.550Z,14.60
2023-02-03T14:23:07.177Z,13.30
2023-02-03T14:26:05.079Z,15.70
2023-02-03T14:28:42.606Z,14.80
2023-02-03T14:31:24.168Z,15.60
2023-02-03T14:33:55.868Z,15.10
2023-02-03T14:36:30.434Z,22.00
2023-02-03T14:39:01.641Z,21.10
2023-02-03T14:41:48.581Z,19.50
2023-02-03T14:44:23.160Z,17.90
2023-02-03T14:47:04.798Z,21.80
2023-02-03T14:52:08.553Z,17.10
2023-02-03T14:54:52.515Z,20.80
2023-02-03T14:57:41.376Z,17.60
2023-02-03T15:00:33.836Z,17.50
2023-02-03T15:03:11.104Z,20.40
2023-02-03T15:05:44.318Z,18.80
2023-02-03T15:08:40.700Z,17.90
2023-02-03T15:11:30.301Z,17.90
2023-02-03T15:14:20.335Z,19.90
2023-02-03T15:17:03.867Z,19.50
2023-02-03T15:19:34.840Z,17.50
2023-02-03T15:22:24.427Z,16.50
2023-02-03T15:24:54.269Z,17.10
2023-02-03T15:27:24.611Z,20.10
2023-02-03T15:29:53.322Z,16.50
2023-02-03T15:32:30.480Z,18.10
2023-02-03T15:34:59.041Z,27.40
2023-02-03T15:38:05.339Z,32.60
2023-02-03T15:40:41.545Z,32.20
2023-02-03T15:43:22.190Z,26.60
2023-02-03T15:46:00.537Z,24.00
2023-02-03T15:48:37.344Z,25.70
2023-02-03T15:51:16.562Z,22.70
2023-02-03T15:53:48.682Z,35.20
2023-02-03T15:56:42.194Z,31.50
2023-02-03T15:59:25.678Z,30.40
2023-02-03T16:01:55.157Z,29.70
2023-02-03T16:04:24.968Z,31.60
2023-02-03T16:06:54.556Z,34.00
2023-02-03T16:09:29.791Z,37.50
2023-02-03T16:12:24.988Z,84.50
2023-02-03T16:14:54.631Z,71.30
2023-02-03T16:17:23.293Z,36.70
2023-02-03T16:19:52.695Z,28.70
2023-02-03T16:22:32.400Z,24.90
2023-02-03T16:25:20.405Z,23.80
2023-02-03T16:28:19.117Z,22.50
2023-02-03T16:31:18.377Z,21.30
2023-02-03T16:34:06.409Z,21.70
2023-02-03T16:36:58.589Z,22.70
2023-02-03T16:39:46.088Z,22.10
2023-02-03T16:42:37.775Z,31.10
2023-02-03T16:45:32.406Z,35.80
2023-02-03T16:48:20.795Z,33.90
2023-02-03T16:50:58.988Z,24.90
2023-02-03T16:53:31.904Z,23.20
2023-02-03T16:56:01.966Z,20.50
2023-02-03T16:58:31.538Z,19.10
2023-02-03T17:01:00.822Z,17.50
2023-02-03T17:03:30.482Z,15.80
2023-02-03T17:06:08.740Z,21.10
2023-02-03T17:08:38.182Z,24.10
2023-02-03T17:11:18.538Z,20.70
2023-02-03T17:13:48.289Z,19.30
2023-02-03T17:16:23.078Z,23.20
2023-02-03T17:18:51.641Z,25.80
2023-02-03T17:21:25.801Z,23.20
2023-02-03T17:23:54.341Z,30.30
2023-02-03T17:26:23.106Z,24.30
2023-02-03T17:28:51.735Z,23.90
2023-02-03T17:31:20.943Z,25.30
2023-02-03T17:33:52.694Z,22.30
2023-02-03T17:36:24.555Z,24.60
2023-02-03T17:55:33.329Z,35.50
2023-02-03T17:58:02.084Z,34.00
2023-02-03T18:00:31.014Z,44.50
2023-02-03T18:02:59.886Z,28.00
2023-02-03T18:05:29.281Z,33.00
2023-02-03T18:08:01.068Z,38.10
2023-02-03T18:10:35.062Z,26.60
2023-02-03T18:13:05.086Z,29.10
2023-02-03T18:15:33.911Z,32.60
2023-02-03T18:18:02.533Z,35.40
2023-02-03T18:20:31.436Z,32.20
2023-02-03T18:23:00.278Z,30.20
2023-02-03T18:25:29.570Z,49.20
2023-02-03T18:27:59.155Z,36.00
2023-02-03T18:30:28.402Z,32.60
2023-02-03T18:32:57.989Z,32.90
2023-02-03T18:35:26.659Z,34.80
2023-02-03T18:37:55.670Z,32.50
2023-02-03T18:40:24.143Z,39.00
2023-02-03T18:42:56.463Z,34.50
2023-02-03T18:45:25.253Z,38.60
2023-02-03T18:47:53.614Z,33.50
2023-02-03T18:50:24.536Z,41.70
2023-02-03T18:52:54.449Z,36.60
2023-02-03T18:55:23.044Z,54.20
2023-02-03T18:57:51.803Z,35.30
2023-02-03T19:00:20.941Z,36.00
2023-02-03T19:02:50.375Z,37.60
2023-02-03T19:05:19.888Z,34.40
2023-02-03T19:07:49.531Z,34.30
2023-02-03T19:10:18.440Z,38.40
2023-02-03T19:12:48.238Z,33.30
2023-02-03T19:15:17.236Z,34.90
2023-02-03T19:17:46.237Z,37.00
2023-02-03T19:20:14.939Z,41.30
2023-02-03T19:22:45.450Z,37.80
2023-02-03T19:25:14.252Z,41.90
2023-02-03T19:27:43.382Z,38.20
2023-02-03T19:30:12.601Z,50.80
2023-02-03T19:32:42.856Z,47.30
2023-02-03T19:35:12.854Z,44.40
2023-02-03T19:37:42.276Z,43.00
2023-02-03T19:40:11.754Z,39.20
2023-02-03T19:42:41.358Z,40.10
2023-02-03T19:45:10.366Z,45.40
2023-02-03T19:47:39.888Z,39.90
2023-02-03T19:50:09.610Z,39.70
2023-02-03T19:52:37.981Z,50.10
2023-02-03T19:55:06.611Z,42.90
2023-02-03T19:57:35.391Z,49.30
2023-02-03T20:00:04.367Z,48.10
2023-02-03T20:02:42.928Z,55.40
2023-02-03T20:05:12.056Z,48.90
2023-02-03T20:07:40.850Z,45.70
2023-02-03T20:10:10.037Z,46.20
2023-02-03T20:12:50.314Z,42.10
2023-02-03T20:15:19.201Z,41.50
2023-02-03T20:17:51.060Z,52.90
2023-02-03T20:20:20.913Z,43.80
2023-02-03T20:22:49.642Z,47.50
2023-02-03T20:25:19.474Z,40.70
2023-02-03T20:27:48.539Z,41.30
2023-02-03T20:30:17.745Z,41.90
2023-02-03T20:32:47.678Z,39.20
2023-02-03T20:35:16.772Z,42.70
2023-02-03T20:37:45.662Z,42.80
2023-02-03T20:40:17.420Z,36.40
2023-02-03T20:42:47.956Z,39.70
2023-02-03T20:45:17.424Z,39.40
2023-02-03T20:47:47.069Z,43.50
2023-02-03T20:50:28.913Z,37.50
2023-02-03T20:53:01.126Z,36.40
2023-02-03T20:55:30.123Z,40.30
2023-02-03T20:57:58.716Z,37.90
2023-02-03T21:00:28.290Z,38.80
2023-02-03T21:03:15.332Z,38.70
2023-02-03T21:05:45.531Z,35.70
2023-02-03T21:08:16.111Z,39.50
2023-02-03T21:10:45.434Z,43.00
2023-02-03T21:13:33.837Z,34.80
2023-02-03T21:16:05.247Z,35.50
2023-02-03T21:18:37.693Z,36.60
2023-02-03T21:21:15.430Z,37.20
2023-02-03T21:23:47.152Z,41.10
2023-02-03T21:26:27.030Z,35.70
2023-02-03T21:28:57.175Z,39.00
2023-02-03T21:31:31.056Z,42.10
2023-02-03T21:34:04.107Z,40.90
2023-02-03T21:36:36.077Z,40.20
2023-02-03T21:39:25.517Z,41.50
2023-02-03T21:41:53.898Z,41.60
2023-02-03T21:44:33.438Z,40.80
2023-02-03T21:47:06.330Z,41.10
2023-02-03T21:49:34.760Z,37.10
2023-02-03T21:52:03.971Z,41.30
2023-02-03T21:54:34.031Z,42.60
2023-02-03T21:57:02.581Z,35.50
2023-02-03T21:59:38.715Z,34.90
2023-02-03T22:02:44.620Z,38.60
2023-02-03T22:05:16.753Z,45.20
2023-02-03T22:07:45.042Z,41.20
2023-02-03T22:10:14.477Z,46.50
2023-02-03T22:12:42.950Z,49.60
2023-02-03T22:15:12.701Z,43.00
2023-02-03T22:17:41.592Z,49.50
2023-02-03T22:20:11.116Z,52.00
2023-02-03T22:22:39.533Z,52.60
2023-02-03T22:25:08.528Z,53.60
2023-02-03T22:27:37.315Z,52.10
2023-02-03T22:30:06.307Z,50.30
2023-02-03T22:32:34.897Z,50.90
2023-02-03T22:35:04.105Z,53.70
2023-02-03T22:37:34.037Z,50.90
2023-02-03T22:40:05.910Z,50.40
2023-02-03T22:42:34.658Z,48.10
2023-02-03T22:45:03.744Z,48.80
2023-02-03T22:47:32.558Z,48.10
2023-02-03T22:50:01.626Z,44.00
2023-02-03T22:52:30.727Z,41.30
2023-02-03T22:55:00.684Z,41.30
2023-02-03T22:57:28.938Z,45.70
2023-02-03T22:59:58.317Z,46.00
2023-02-03T23:02:27.046Z,48.30
2023-02-03T23:04:55.534Z,45.40
2023-02-03T23:07:24.446Z,38.20
2023-02-03T23:09:53.160Z,36.60
2023-02-03T23:12:21.850Z,40.20
2023-02-03T23:14:53.278Z,40.10
2023-02-03T23:17:22.109Z,38.10
2023-02-03T23:19:50.585Z,35.40
2023-02-03T23:22:19.208Z,34.20
2023-02-03T23:24:47.647Z,33.90
2023-02-03T23:27:16.354Z,35.40
2023-02-03T23:29:45.115Z,38.50
2023-02-03T23:32:13.595Z,37.40
2023-02-03T23:35:01.334Z,35.70
2023-02-03T23:37:30.732Z,41.60
2023-02-03T23:40:00.733Z,41.80
2023-02-03T23:42:29.057Z,34.30
2023-02-03T23:44:57.329Z,31.40
2023-02-03T23:47:26.608Z,32.60
2023-02-03T23:49:55.191Z,30.00
2023-02-03T23:52:23.768Z,32.10
2023-02-03T23:54:53.095Z,29.50
2023-02-03T23:57:21.892Z,29.60
2023-02-03T23:59:51.265Z,29.10
